Aviation Digital Data Service (ADDS)

Output produced by METARs form (0619 UTC 02 August 2015)
found at http://aviationweather.gov/adds/metars/
 
KDAG 020550Z AUTO 28009KT 10SM CLR 32/05 A2991 RMK AO2 SLP096 T03170050 10411 20317 51019
KDAG 020523Z 0206/0306 23010KT P6SM FEW200 
     FM020800 26008KT P6SM FEW200 
     FM022000 02006KT P6SM FEW150 
     FM030300 24008KT P6SM SKC
       
KEDW 020558Z AUTO 20006KT 10SM CLR 26/01 A2994 RMK AO2 SLP110 T02640005 10385 20264 52015
TAF KEDW 0102/0208 22013G18KT 9999 FEW110 BKN290 QNH2992INS 
     TEMPO 0102/0104 24018G26KT 510009 
     BECMG 0107/0108 23009KT 9999 SCT290 QNH3000INS 
     BECMG 0117/0118 23013G18KT 9999 FEW110 BKN270 QNH2992INS 
     TEMPO 0123/0203 25018G25KT 510009 
     BECMG 0204/0205 23009KT 9999 SCT300 QNH2998INS TX38/0122Z TN24/0113Z LAST NO AMDS AFT 0105 NEXT 0310
       
KVCV 020615Z AUTO 00000KT 10SM CLR 24/07 A3000 RMK AO2
KONT 020553Z 26009KT 10SM FEW250 22/16 A2993 RMK AO2 SLP120 T02220156 10322 20222 51010 $
KONT 020524Z 0206/0312 VRB06KT P6SM SCT200 BKN250 
     FM021200 VRB03KT 4SM BR SCT008 
     TEMPO 0213/0215 BKN007 
     FM021800 VRB06KT P6SM SCT250 
     FM022000 26012G20KT P6SM SCT250 
     FM030300 26009KT P6SM SCT250 
     FM030600 VRB05KT P6SM SCT250
       
KNID 020610Z AUTO 30014G23KT 10SM CLR 31/09 A2992 RMK AO2 WSHFT 0550 T03110094 $
KSNA 020616Z AUTO 22003KT 10SM BKN011 21/18 A2992 RMK AO2 TSNO
KSNA 020524Z 0206/0306 VRB04KT P6SM OVC012 
     FM021700 VRB05KT P6SM SCT015 SCT250 
     FM021900 22010KT P6SM FEW016 SCT250 
     FM030200 VRB05KT P6SM SCT015 SCT250
       
KSAN 020551Z 31003KT 10SM OVC015 21/17 A2995 RMK AO2 SLP141 T02110167 10239 20211 51008 $
KSAN 020524Z 0206/0312 VRB04KT P6SM OVC015 
     FM021900 28010KT P6SM SCT019 SCT250 
     FM030200 VRB05KT P6SM SCT017 SCT250 
     FM030400 VRB04KT P6SM OVC014
       
KNXP 020556Z 18007KT 10SM FEW300 31/12 A2997 RMK AO2 SLP105 T03060117 10378 20306 51011
TAF KNXP 0203/0303 VRB05KT 9999 FEW120 SCT300 QNH2990INS 
     BECMG 0219/0221 24010KT 9999 FEW250 QNH2982INS AUTOMATED SENSOR METWATCH 0203 TIL 0315 T26/0213Z T37/0222Z
       
KPSP 020553Z 33010KT 10SM CLR 34/13 A2979 RMK AO2 SLP081 T03440128 10439 20344 50014
KPSP 020524Z 0206/0306 32011KT P6SM BKN200 
     FM020800 VRB06KT P6SM BKN200 
     FM021800 10009KT P6SM SCT250 
     FM030000 32012G22KT P6SM SCT250
       
KLAX 020553Z 21004KT 10SM SCT012 21/18 A2992 RMK AO2 SLP131 T02110178 10239 20206 51007
KLAX 020533Z 0206/0312 24006KT P6SM FEW012 
     FM020800 VRB03KT 6SM BR BKN008 
     FM021200 VRB03KT P6SM OVC012 
     FM021800 25010KT P6SM SCT250 
     FM030500 VRB03KT P6SM SKC 
     FM030800 VRB03KT P6SM OVC015
       
KCNO 020553Z 28007KT 10SM CLR 22/17 A2994 RMK AO2 SLP131 T02220167 10322 20222 51011
KSMO 020551Z AUTO 00000KT 10SM FEW011 21/18 A2993 RMK AO2 SLP132 T02060178 10239 20206 51009
KLGB 020553Z 00000KT 10SM CLR 22/18 A2992 RMK AO2 SLP131 T02220178 10289 20222 51011
KLGB 020533Z 0206/0306 29008KT P6SM FEW012 SCT250 
     FM020900 VRB03KT P6SM OVC013 
     FM021700 18006KT P6SM SCT250 
     FM022300 29008KT P6SM SCT250 
     FM030500 VRB03KT P6SM SKC
       
KVNY 020551Z AUTO 12005KT 10SM CLR 22/17 A2993 RMK AO2 SLP125 T02170167 10311 20217 51014
KVNY 020533Z 0206/0306 VRB03KT P6SM SCT250 
     FM021100 VRB03KT 3SM BR BKN005 
     FM021700 VRB05KT P6SM FEW010 SCT250 
     FM022000 13008KT P6SM SCT250 
     FM030500 VRB03KT P6SM SKC
       
KBUR 020553Z 10005KT 10SM CLR 22/16 A2993 RMK AO2 SLP122 T02170161 10294 20211 50013 $
KBUR 020533Z 0206/0306 12006KT P6SM SCT250 
     FM021100 VRB03KT 5SM BR BKN006 
     FM021700 VRB03KT P6SM SCT250 
     FM022000 18010KT P6SM SCT250 
     FM030400 12008KT P6SM SKC
       
KBFL 020554Z 33009KT 10SM CLR 28/09 A2987 RMK AO2 SLP108 T02830094 10389 20283 51019
KBFL 020520Z 0206/0306 34008KT P6SM SKC 
     FM021000 VRB04KT P6SM SKC 
     FM022000 30010KT P6SM SKC 
     FM030300 35006KT P6SM SKC
       
KPMD 020553Z AUTO 24011KT 10SM CLR 28/03 A2998 RMK AO2 SLP116 T02780028 10361 20267 51015
KPMD 020533Z 0206/0306 28010KT P6SM FEW250 
     FM020800 20006KT P6SM SKC 
     FM021400 VRB05KT P6SM SCT250 
     FM022300 24012G22KT P6SM SCT250 
     FM030300 25012KT P6SM SCT250
       
KOXR 020551Z AUTO 00000KT 8SM CLR 20/17 A2990 RMK AO2 SLP124 T02000167 10233 20194 50007
KOXR 020533Z 0206/0306 28006KT P6SM SKC 
     FM021000 VRB03KT P6SM OVC007 
     FM021500 VRB03KT P6SM OVC012 
     FM021800 26010KT P6SM SCT250 
     FM030500 VRB03KT P6SM SKC
       
KWJF 020556Z AUTO 25008KT 10SM CLR 26/07 A2996 RMK AO2 SLP121 T02560072 10367 20256 50007
KWJF 020533Z 0206/0306 25008KT P6SM FEW250 
     FM021400 VRB05KT P6SM SCT250 
     FM022200 23015G25KT P6SM SCT250 
     FM030300 25015KT P6SM SCT250
       
KCMA 020555Z 00000KT 8SM CLR 21/17 A2990 RMK AO2 SLP134 T02060167 10256 20206 50006
KFAT 020553Z 31014KT 10SM FEW150 SCT200 29/12 A2987 RMK AO2 SLP109 T02890117 10378 20289 50014
KFAT 020520Z 0206/0306 31011KT P6SM FEW150 
     FM020900 VRB04KT P6SM SKC 
     FM022200 31010KT P6SM SCT130 SCT200
       
KEED 020556Z AUTO 33005KT 10SM CLR 32/14 A2982 RMK AO2 SLP065 T03220139 10378 20322 50004
KEED 020523Z 0206/0306 33007KT P6SM FEW200 
     FM021200 36008KT P6SM FEW200 
     FM022200 23008KT P6SM FEW150
       
KLSV 020558Z AUTO 05004KT 10SM FEW130 28/16 A2990 RMK AO2 SLP100 T02800160 10315 20280 50003 CHINO RWY03R $
TAF AMD KLSV 0205/0307 05009KT 9999 FEW060 SCT120 QNH2989INS 
     BECMG 0217/0218 15009KT 9999 FEW140 QNH2996INS 
     BECMG 0219/0220 21010KT 9999 SKC QNH2986INS 
     BECMG 0305/0306 06009KT 9999 SKC QNH2991INS TX38/0223Z TN26/0212Z AMD 020523
       
KLAS 020556Z 29009G17KT 10SM FEW110 SCT160 BKN220 28/14 A2989 RMK AO2 SLP094 T02830144 10311 20283 50003
KLAS 020523Z 0206/0306 31010G18KT P6SM FEW120 SCT160 
     FM020800 21007KT P6SM FEW120 
     FM021500 VRB06KT P6SM FEW120 
     FM021800 06007KT P6SM SCT120 
     FM022100 20009KT P6SM SCT120
       
KHII 020550Z AUTO 35004KT 10SM CLR 33/14 A2980 RMK AO2
KIFP 020615Z AUTO 02011KT 10SM CLR 33/14 A2981 RMK AO2
KIFP 020523Z 0206/0306 02010KT P6SM FEW200 
     FM022200 22008KT P6SM FEW150 
     FM030200 16008KT P6SM SKC